createdAt,value
2022-10-11T00:01:08.637Z,101432.66
2022-10-11T00:03:36.478Z,101430.34
2022-10-11T00:06:06.102Z,101439.81
2022-10-11T00:08:34.406Z,101444.59
2022-10-11T00:11:05.811Z,101450.81
2022-10-11T00:13:34.255Z,101456.19
2022-10-11T00:16:02.639Z,101456.84
2022-10-11T00:18:30.677Z,101460.22
2022-10-11T00:21:03.031Z,101467.22
2022-10-11T00:23:30.794Z,101469.69
2022-10-11T00:25:59.700Z,101481.44
2022-10-11T00:28:29.113Z,101482.56
2022-10-11T00:30:57.488Z,101486.78
2022-10-11T00:33:25.220Z,101488.66
2022-10-11T00:35:53.031Z,101490.13
2022-10-11T00:38:20.999Z,101487.66
2022-10-11T00:40:48.746Z,101495.00
2022-10-11T00:43:18.009Z,101495.41
2022-10-11T00:46:06.540Z,101502.19
2022-10-11T00:48:42.382Z,101500.78
2022-10-11T00:51:16.679Z,101510.22
2022-10-11T00:53:44.788Z,101508.53
2022-10-11T00:56:16.298Z,101511.38
2022-10-11T00:58:44.208Z,101509.50
2022-10-11T01:01:13.423Z,101516.13
2022-10-11T01:03:41.697Z,101520.47
2022-10-11T01:06:10.138Z,101523.19
2022-10-11T01:08:38.049Z,101528.50
2022-10-11T01:11:06.064Z,101532.41
2022-10-11T01:13:44.387Z,101531.13
2022-10-11T01:16:16.763Z,101531.44
2022-10-11T01:18:49.992Z,101538.50
2022-10-11T01:21:27.373Z,101544.13
2022-10-11T01:24:21.858Z,101543.88
2022-10-11T01:27:25.534Z,101550.94
2022-10-11T01:30:03.613Z,101548.75
2022-10-11T01:32:35.681Z,101556.91
2022-10-11T01:35:07.691Z,101555.06
2022-10-11T01:37:38.143Z,101567.59
2022-10-11T01:40:10.045Z,101563.69
2022-10-11T01:42:39.687Z,101562.16
2022-10-11T01:45:09.669Z,101554.84
2022-10-11T01:47:39.065Z,101558.31
2022-10-11T01:50:09.196Z,101558.66
2022-10-11T01:52:38.317Z,101565.13
2022-10-11T01:55:14.939Z,101572.34
2022-10-11T01:57:49.242Z,101576.41
2022-10-11T02:00:18.360Z,101569.22
2022-10-11T02:02:54.175Z,101573.38
2022-10-11T02:05:27.358Z,101572.66
2022-10-11T02:08:00.251Z,101571.50
2022-10-11T02:10:33.665Z,101583.56
2022-10-11T02:13:05.031Z,101573.94
2022-10-11T02:15:34.090Z,101584.19
2022-10-11T02:18:07.306Z,101581.56
2022-10-11T02:20:35.722Z,101578.59
2022-10-11T02:23:07.049Z,101593.06
2022-10-11T02:25:36.537Z,101587.94
2022-10-11T02:28:07.704Z,101592.09
2022-10-11T02:30:36.710Z,101592.59
2022-10-11T02:33:07.709Z,101595.03
2022-10-11T02:35:39.466Z,101600.66
2022-10-11T02:38:11.778Z,101600.72
2022-10-11T02:40:42.125Z,101602.56
2022-10-11T02:43:13.728Z,101607.00
2022-10-11T02:45:44.197Z,101605.16
2022-10-11T02:48:13.641Z,101600.88
2022-10-11T02:50:42.827Z,101606.50
2022-10-11T02:53:11.096Z,101599.25
2022-10-11T02:55:38.886Z,101612.22
2022-10-11T02:58:06.650Z,101617.28
2022-10-11T03:00:34.441Z,101619.16
2022-10-11T03:03:02.247Z,101621.88
2022-10-11T03:05:32.565Z,101619.31
2022-10-11T03:08:00.303Z,101628.53
2022-10-11T03:10:28.638Z,101629.13
2022-10-11T03:12:56.631Z,101636.69
2022-10-11T03:15:24.431Z,101646.28
2022-10-11T03:17:52.120Z,101638.13
2022-10-11T03:20:19.967Z,101645.75
2022-10-11T03:22:49.021Z,101648.56
2022-10-11T03:25:17.209Z,101649.41
2022-10-11T03:27:44.938Z,101656.47
2022-10-11T03:30:17.910Z,101663.81
2022-10-11T03:32:46.018Z,101669.00
2022-10-11T03:35:13.802Z,101669.44
2022-10-11T03:37:41.724Z,101665.63
2022-10-11T03:40:12.222Z,101667.25
2022-10-11T03:42:40.397Z,101675.69
2022-10-11T03:45:09.812Z,101676.16
2022-10-11T03:47:38.738Z,101675.94
2022-10-11T03:50:07.467Z,101680.78
2022-10-11T03:52:35.394Z,101682.16
2022-10-11T03:55:03.448Z,101681.25
2022-10-11T03:57:32.540Z,101681.00
2022-10-11T04:00:00.301Z,101684.34
2022-10-11T04:02:28.512Z,101689.69
2022-10-11T04:04:56.608Z,101691.28
2022-10-11T04:07:24.290Z,101698.59
2022-10-11T04:09:52.803Z,101706.66
2022-10-11T04:12:20.646Z,101708.97
2022-10-11T04:14:49.788Z,101705.69
2022-10-11T04:17:17.505Z,101716.31
2022-10-11T04:19:45.265Z,101713.88
2022-10-11T04:22:13.979Z,101717.63
2022-10-11T04:24:41.794Z,101717.19
2022-10-11T04:27:09.588Z,101726.44
2022-10-11T04:29:37.329Z,101721.50
2022-10-11T04:32:06.872Z,101728.44
2022-10-11T04:34:34.609Z,101730.22
2022-10-11T04:37:02.809Z,101736.38
2022-10-11T04:39:30.533Z,101730.03
2022-10-11T04:41:58.645Z,101730.19
2022-10-11T04:44:26.382Z,101731.22
2022-10-11T04:46:54.085Z,101731.50
2022-10-11T04:49:23.413Z,101735.69
2022-10-11T04:51:51.172Z,101743.72
2022-10-11T04:54:19.255Z,101746.88
2022-10-11T04:56:47.795Z,101744.72
2022-10-11T04:59:15.588Z,101760.03
2022-10-11T05:01:43.403Z,101755.22
2022-10-11T05:04:11.153Z,101756.13
2022-10-11T05:06:40.284Z,101767.41
2022-10-11T05:09:07.996Z,101768.59
2022-10-11T05:11:35.791Z,101770.00
2022-10-11T05:14:03.666Z,101773.06
2022-10-11T05:16:31.435Z,101770.41
2022-10-11T05:18:59.200Z,101776.47
2022-10-11T05:21:28.234Z,101780.03
2022-10-11T05:23:57.915Z,101775.06
2022-10-11T05:26:27.404Z,101788.53
2022-10-11T05:28:55.930Z,101790.00
2022-10-11T05:31:24.099Z,101796.31
2022-10-11T05:33:52.005Z,101796.53
2022-10-11T05:36:19.734Z,101801.13
2022-10-11T05:38:47.634Z,101809.75
2022-10-11T05:41:17.245Z,101798.81
2022-10-11T05:43:45.854Z,101812.34
2022-10-11T05:46:13.722Z,101803.69
2022-10-11T05:48:41.847Z,101814.09
2022-10-11T05:51:10.801Z,101815.53
2022-10-11T05:53:39.744Z,101820.91
2022-10-11T05:56:20.279Z,101827.94
2022-10-11T05:58:48.405Z,101823.75
2022-10-11T06:01:20.782Z,101821.66
2022-10-11T06:03:48.770Z,101822.69
2022-10-11T06:06:17.020Z,101830.16
2022-10-11T06:08:46.265Z,101833.94
2022-10-11T06:11:16.449Z,101835.59
2022-10-11T06:13:56.470Z,101848.75
2022-10-11T06:16:25.362Z,101848.50
2022-10-11T06:18:54.030Z,101856.16
2022-10-11T06:21:21.911Z,101857.00
2022-10-11T06:23:50.781Z,101853.72
2022-10-11T06:26:19.177Z,101856.56
2022-10-11T06:28:47.045Z,101861.38
2022-10-11T06:31:16.162Z,101867.56
2022-10-11T06:33:43.953Z,101862.19
2022-10-11T06:36:13.404Z,101868.63
2022-10-11T06:38:44.925Z,101866.97
2022-10-11T06:41:14.442Z,101872.84
2022-10-11T06:43:42.385Z,101878.31
2022-10-11T06:46:10.228Z,101875.31
2022-10-11T06:48:43.385Z,101884.41
2022-10-11T06:51:11.233Z,101887.41
2022-10-11T06:53:39.055Z,101878.09
2022-10-11T06:56:11.711Z,101891.16
2022-10-11T06:58:40.917Z,101897.09
2022-10-11T07:01:10.601Z,101905.25
2022-10-11T07:03:38.413Z,101894.59
2022-10-11T07:06:10.065Z,101900.56
2022-10-11T07:08:39.023Z,101899.09
2022-10-11T07:11:08.987Z,101911.19
2022-10-11T07:13:37.103Z,101917.00
2022-10-11T07:16:06.033Z,101915.84
2022-10-11T07:18:34.116Z,101922.56
2022-10-11T07:21:04.327Z,101914.09
2022-10-11T07:23:33.445Z,101923.09
2022-10-11T07:26:02.183Z,101914.91
2022-10-11T07:28:31.125Z,101934.00
2022-10-11T07:30:59.961Z,101936.59
2022-10-11T07:33:28.220Z,101940.16
2022-10-11T07:35:58.699Z,101947.19
2022-10-11T07:38:26.839Z,101938.91
2022-10-11T07:40:55.954Z,101945.06
2022-10-11T07:43:23.678Z,101947.81
2022-10-11T07:45:54.286Z,101948.00
2022-10-11T07:48:22.610Z,101951.88
2022-10-11T07:50:50.440Z,101949.91
2022-10-11T07:53:18.203Z,101954.91
2022-10-11T07:55:46.017Z,101957.66
2022-10-11T07:58:15.231Z,101953.75
2022-10-11T08:00:43.291Z,101958.47
2022-10-11T08:03:11.473Z,101951.72
2022-10-11T08:05:39.453Z,101952.31
2022-10-11T08:08:07.384Z,101957.94
2022-10-11T08:10:38.464Z,101964.16
2022-10-11T08:13:06.404Z,101957.88
2022-10-11T08:15:35.507Z,101963.09
2022-10-11T08:18:03.308Z,101968.94
2022-10-11T08:20:33.120Z,101969.25
2022-10-11T08:23:01.107Z,101964.88
2022-10-11T08:25:29.882Z,101972.69
2022-10-11T08:27:57.702Z,101975.63
2022-10-11T08:30:25.474Z,101974.38
2022-10-11T08:32:54.660Z,101972.25
2022-10-11T08:35:22.377Z,101978.00
2022-10-11T08:37:50.149Z,101976.50
2022-10-11T08:40:19.507Z,101976.28
2022-10-11T08:42:51.677Z,101980.81
2022-10-11T08:45:30.495Z,101981.88
2022-10-11T08:48:05.546Z,101977.78
2022-10-11T08:50:33.330Z,101979.16
2022-10-11T08:53:04.547Z,101992.13
2022-10-11T08:55:37.253Z,101986.22
2022-10-11T08:58:05.109Z,101999.72
2022-10-11T09:00:34.793Z,101986.97
2022-10-11T09:03:09.309Z,101999.38
2022-10-11T09:05:45.053Z,102003.38
2022-10-11T09:08:19.885Z,101994.94
2022-10-11T09:10:56.798Z,101993.88
2022-10-11T09:13:42.354Z,102005.47
2022-10-11T09:16:17.206Z,101998.53
2022-10-11T09:18:55.177Z,102004.88
2022-10-11T09:21:29.679Z,101996.28
2022-10-11T09:24:14.542Z,102003.41
2022-10-11T09:26:49.456Z,101998.47
2022-10-11T09:29:24.813Z,102004.72
2022-10-11T09:31:55.214Z,102004.72
2022-10-11T09:34:26.876Z,102008.47
2022-10-11T09:36:57.309Z,102003.34
2022-10-11T09:39:28.825Z,102005.94
2022-10-11T09:41:59.878Z,102009.72
2022-10-11T09:44:29.591Z,102007.44
2022-10-11T09:46:58.373Z,102004.94
2022-10-11T09:49:30.808Z,101992.56
2022-10-11T09:52:00.483Z,101991.72
2022-10-11T09:54:39.708Z,101996.06
2022-10-11T09:57:08.229Z,101994.31
2022-10-11T09:59:36.498Z,101994.69
2022-10-11T10:02:21.125Z,102003.38
2022-10-11T10:05:18.699Z,102001.28
2022-10-11T10:08:04.709Z,102003.03
2022-10-11T10:10:38.570Z,101997.16
2022-10-11T10:13:07.979Z,101998.38
2022-10-11T10:15:37.338Z,101999.09
2022-10-11T10:18:10.455Z,102007.09
2022-10-11T10:20:39.645Z,102003.69
2022-10-11T10:23:10.958Z,102008.91
2022-10-11T10:25:43.452Z,102004.38
2022-10-11T10:28:21.983Z,102005.00
2022-10-11T10:30:54.505Z,102022.06
2022-10-11T10:33:24.345Z,102008.88
2022-10-11T10:35:55.340Z,102019.16
2022-10-11T10:38:27.673Z,102022.84
2022-10-11T10:40:58.137Z,102027.84
2022-10-11T10:43:27.641Z,102018.78
2022-10-11T10:46:18.015Z,102025.28
2022-10-11T10:51:49.387Z,102019.28
2022-10-11T10:54:24.860Z,102015.22
2022-10-11T10:56:54.725Z,102014.03
2022-10-11T10:59:46.148Z,102031.13
2022-10-11T11:02:38.973Z,102014.69
2022-10-11T11:05:14.188Z,102005.47
2022-10-11T11:07:45.378Z,102015.34
2022-10-11T11:10:17.082Z,102015.13
2022-10-11T11:12:47.443Z,102006.31
2022-10-11T11:15:19.756Z,102012.97
2022-10-11T11:17:59.161Z,102009.50
2022-10-11T11:20:56.219Z,102011.44
2022-10-11T11:23:31.753Z,102021.81
2022-10-11T11:26:07.797Z,101995.97
2022-10-11T11:28:44.829Z,102007.53
2022-10-11T11:31:23.565Z,102015.75
2022-10-11T11:33:59.134Z,102009.41
2022-10-11T11:36:39.989Z,101997.69
2022-10-11T11:39:14.756Z,102001.97
2022-10-11T11:41:45.376Z,102003.97
2022-10-11T11:44:17.562Z,102002.84
2022-10-11T11:46:48.604Z,101998.72
2022-10-11T11:49:20.577Z,102000.78
2022-10-11T11:51:48.586Z,102001.47
2022-10-11T11:54:28.145Z,101999.97
2022-10-11T11:56:59.484Z,101999.28
2022-10-11T11:59:33.248Z,101991.91
2022-10-11T12:02:10.073Z,101980.66
2022-10-11T12:04:39.231Z,101990.66
2022-10-11T12:07:16.222Z,101998.50
2022-10-11T12:09:50.396Z,101996.00
2022-10-11T12:12:30.371Z,101991.91
2022-10-11T12:15:13.111Z,101986.53
2022-10-11T12:18:42.922Z,101988.59
2022-10-11T12:21:21.231Z,101985.19
2022-10-11T12:23:49.765Z,101989.03
2022-10-11T12:26:46.400Z,101994.56
2022-10-11T12:29:43.315Z,101985.81
2022-10-11T12:32:53.425Z,101985.31
2022-10-11T12:35:49.675Z,101988.50
2022-10-11T12:38:21.881Z,101985.44
2022-10-11T12:40:54.505Z,101991.94
2022-10-11T12:43:37.208Z,101993.16
2022-10-11T12:47:28.036Z,101994.72
2022-10-11T12:50:08.686Z,102000.13
2022-10-11T12:52:41.542Z,101989.78
2022-10-11T12:55:45.093Z,101992.75
2022-10-11T12:58:28.825Z,102002.16
2022-10-11T13:01:36.179Z,101986.78
2022-10-11T13:04:11.711Z,101988.41
2022-10-11T13:06:46.627Z,101993.91
2022-10-11T13:09:28.258Z,101990.88
2022-10-11T13:11:58.696Z,101979.75
2022-10-11T13:14:27.614Z,101984.50
2022-10-11T13:17:05.419Z,101980.16
2022-10-11T13:19:36.472Z,101981.88
2022-10-11T13:22:07.763Z,101984.88
2022-10-11T13:24:38.780Z,101981.81
2022-10-11T13:27:07.688Z,101983.31
2022-10-11T13:29:38.497Z,101978.53
2022-10-11T13:32:09.318Z,101981.38
2022-10-11T13:34:40.419Z,101985.66
2022-10-11T13:37:08.999Z,101993.09
2022-10-11T13:39:39.205Z,101993.66
2022-10-11T13:42:11.825Z,101992.19
2022-10-11T13:44:40.274Z,101984.91
2022-10-11T13:47:10.547Z,101987.28
2022-10-11T13:49:39.960Z,101986.88
2022-10-11T13:56:20.295Z,101976.72
2022-10-11T13:58:48.469Z,101974.50
2022-10-11T14:01:19.104Z,101977.59
2022-10-11T14:04:29.345Z,101975.81
2022-10-11T14:07:29.761Z,101968.22
2022-10-11T14:10:40.588Z,101976.75
2022-10-11T14:13:24.759Z,101985.78
2022-10-11T14:16:06.456Z,101980.88
2022-10-11T14:18:48.767Z,101995.53
2022-10-11T14:21:27.879Z,101994.94
2022-10-11T14:24:01.578Z,102001.97
2022-10-11T14:26:37.810Z,102002.09
2022-10-11T14:29:08.952Z,101986.34
2022-10-11T14:31:41.783Z,101992.50
2022-10-11T14:34:16.039Z,101991.25
2022-10-11T14:36:43.802Z,101978.41
2022-10-11T14:39:15.523Z,101980.38
2022-10-11T14:41:43.702Z,101983.59
2022-10-11T14:44:11.605Z,101984.84
2022-10-11T14:46:40.859Z,101981.47
2022-10-11T14:49:14.459Z,101978.72
2022-10-11T14:51:42.770Z,101987.25
2022-10-11T14:54:10.785Z,101982.66
2022-10-11T14:56:39.998Z,101997.84
2022-10-11T14:59:07.966Z,101984.38
2022-10-11T15:01:35.774Z,101984.78
2022-10-11T15:04:03.532Z,101989.41
2022-10-11T15:06:34.539Z,101988.66
2022-10-11T15:09:02.326Z,101986.13
2022-10-11T15:11:30.087Z,101991.69
2022-10-11T15:13:59.717Z,101982.84
2022-10-11T15:17:23.707Z,101983.63
2022-10-11T15:20:09.343Z,101989.06
2022-10-11T15:22:40.068Z,101990.94
2022-10-11T15:25:11.282Z,101982.38
2022-10-11T15:27:39.088Z,101980.13
2022-10-11T15:30:18.234Z,101979.59
2022-10-11T15:36:53.344Z,101974.41
2022-10-11T15:39:31.490Z,101972.75
2022-10-11T15:41:59.587Z,101978.69
2022-10-11T15:44:27.470Z,101979.16
2022-10-11T15:46:56.576Z,101989.97
2022-10-11T15:49:24.345Z,101990.31
2022-10-11T15:51:52.088Z,101991.06
2022-10-11T15:54:24.213Z,101989.50
2022-10-11T15:56:56.864Z,101995.44
2022-10-11T15:59:24.573Z,101995.53
2022-10-11T16:01:52.383Z,101990.84
2022-10-11T16:04:21.556Z,101997.34
2022-10-11T16:06:49.271Z,102000.00
2022-10-11T16:09:17.112Z,102002.16
2022-10-11T16:11:44.962Z,102012.59
2022-10-11T16:14:12.662Z,102005.63
2022-10-11T16:16:43.441Z,102008.50
2022-10-11T16:19:11.999Z,102011.16
2022-10-11T16:21:41.091Z,102018.16
2022-10-11T16:24:08.968Z,102008.47
2022-10-11T16:29:32.013Z,102020.38
2022-10-11T16:32:02.999Z,102014.47
2022-10-11T16:34:30.738Z,102016.38
2022-10-11T16:36:59.855Z,102012.13
2022-10-11T16:39:31.061Z,102018.63
2022-10-11T16:41:58.879Z,102025.38
2022-10-11T16:44:27.887Z,102022.66
2022-10-11T16:46:56.621Z,102028.16
2022-10-11T16:49:26.107Z,102024.19
2022-10-11T16:51:55.638Z,102030.72
2022-10-11T16:54:24.771Z,102032.09
2022-10-11T16:56:52.530Z,102025.53
2022-10-11T16:59:20.896Z,102035.84
2022-10-11T17:01:49.096Z,102037.03
2022-10-11T17:04:16.853Z,102046.28
2022-10-11T17:06:44.886Z,102041.41
2022-10-11T17:09:12.706Z,102040.94
2022-10-11T17:11:41.945Z,102036.53
2022-10-11T17:14:10.232Z,102039.78
2022-10-11T17:16:38.006Z,102037.91
2022-10-11T17:19:06.142Z,102036.06
2022-10-11T17:21:33.962Z,102042.75
2022-10-11T17:24:01.747Z,102039.34
2022-10-11T17:26:29.510Z,102045.34
2022-10-11T17:28:59.628Z,102045.38
2022-10-11T17:31:28.098Z,102045.31
2022-10-11T17:33:56.247Z,102052.31
2022-10-11T17:36:25.313Z,102051.25
2022-10-11T17:38:53.409Z,102054.91
2022-10-11T17:41:21.758Z,102047.38
2022-10-11T17:43:49.453Z,102055.56
2022-10-11T17:46:22.195Z,102055.00
2022-10-11T17:48:50.249Z,102052.81
2022-10-11T17:51:20.018Z,102057.56
2022-10-11T17:53:50.792Z,102056.84
2022-10-11T17:56:23.948Z,102056.97
2022-10-11T18:00:25.019Z,102057.19
2022-10-11T18:02:53.475Z,102051.28
2022-10-11T18:05:21.703Z,102056.00
2022-10-11T18:07:53.360Z,102047.50
2022-10-11T18:10:21.353Z,102061.91
2022-10-11T18:12:49.184Z,102059.97
2022-10-11T18:15:39.482Z,102055.91
2022-10-11T18:18:11.619Z,102053.19
2022-10-11T18:20:39.462Z,102054.28
2022-10-11T18:23:16.261Z,102053.03
2022-10-11T18:25:44.159Z,102058.88
2022-10-11T18:31:59.227Z,102051.47
2022-10-11T18:34:56.601Z,102050.97
2022-10-11T18:37:24.431Z,102052.72
2022-10-11T18:39:52.150Z,102047.81
2022-10-11T18:42:20.354Z,102050.00
2022-10-11T18:44:50.919Z,102052.63
2022-10-11T18:47:18.974Z,102051.66
2022-10-11T18:49:48.035Z,102050.88
2022-10-11T18:52:15.999Z,102047.97
2022-10-11T18:54:43.715Z,102046.84
2022-10-11T18:57:11.584Z,102048.22
2022-10-11T18:59:39.306Z,102045.81
2022-10-11T19:02:07.233Z,102049.50
2022-10-11T19:04:34.988Z,102047.69
2022-10-11T19:07:04.268Z,102046.13
2022-10-11T19:09:32.340Z,102045.81
2022-10-11T19:12:00.119Z,102038.34
2022-10-11T19:14:30.286Z,102040.69
2022-10-11T19:16:58.805Z,102044.34
2022-10-11T19:19:28.526Z,102040.81
2022-10-11T19:21:56.614Z,102044.94
2022-10-11T19:24:27.661Z,102048.75
2022-10-11T19:27:01.218Z,102050.41
2022-10-11T19:29:30.835Z,102050.53
2022-10-11T19:32:00.548Z,102052.34
2022-10-11T19:34:29.015Z,102043.38
2022-10-11T19:36:57.556Z,102046.19
2022-10-11T19:39:26.673Z,102051.69
2022-10-11T19:41:54.689Z,102038.81
2022-10-11T19:44:22.517Z,102047.91
2022-10-11T19:46:52.109Z,102052.13
2022-10-11T19:49:22.681Z,102042.59
2022-10-11T19:51:50.669Z,102053.94
2022-10-11T19:54:18.658Z,102063.94
2022-10-11T19:56:48.174Z,102061.63
2022-10-11T19:59:16.344Z,102056.91
2022-10-11T20:01:49.413Z,102053.69
2022-10-11T20:04:46.916Z,102049.41
2022-10-11T20:07:06.765Z,102054.22
2022-10-11T20:09:34.587Z,102057.31
2022-10-11T20:12:03.686Z,102055.72
2022-10-11T20:14:31.456Z,102052.22
2022-10-11T20:16:59.191Z,102050.25
2022-10-11T20:19:31.083Z,102055.19
2022-10-11T20:21:59.419Z,102058.53
2022-10-11T20:24:28.976Z,102061.38
2022-10-11T20:26:56.779Z,102064.31
2022-10-11T20:29:26.282Z,102056.69
2022-10-11T20:31:54.017Z,102056.91
2022-10-11T20:34:21.729Z,102054.81
2022-10-11T20:36:49.590Z,102058.81
2022-10-11T20:39:17.872Z,102053.00
2022-10-11T20:41:45.611Z,102068.78
2022-10-11T20:44:15.858Z,102065.78
2022-10-11T20:46:44.952Z,102062.63
2022-10-11T20:49:13.206Z,102058.88
2022-10-11T20:51:42.649Z,102069.34
2022-10-11T20:54:10.929Z,102059.06
2022-10-11T20:56:39.148Z,102057.78
2022-10-11T20:59:07.120Z,102064.28
2022-10-11T21:01:37.073Z,102067.09
2022-10-11T21:04:07.896Z,102065.91
2022-10-11T21:06:35.852Z,102060.38
2022-10-11T21:09:03.603Z,102062.88
2022-10-11T21:11:33.626Z,102068.91
2022-10-11T21:14:02.916Z,102064.63
2022-10-11T21:16:30.883Z,102069.69
2022-10-11T21:18:59.757Z,102069.25
2022-10-11T21:21:29.625Z,102070.50
2022-10-11T21:23:58.236Z,102075.19
2022-10-11T21:26:26.276Z,102070.59
2022-10-11T21:28:54.552Z,102075.59
2022-10-11T21:31:23.556Z,102078.56
2022-10-11T21:33:51.383Z,102072.88
2022-10-11T21:36:20.875Z,102079.16
2022-10-11T21:38:50.744Z,102081.94
2022-10-11T21:41:19.876Z,102077.50
2022-10-11T21:43:48.219Z,102087.97
2022-10-11T21:46:17.832Z,102080.97
2022-10-11T21:48:45.622Z,102080.50
2022-10-11T21:51:17.120Z,102081.59
2022-10-11T21:53:44.818Z,102077.69
2022-10-11T21:56:13.921Z,102078.69
2022-10-11T21:58:41.768Z,102078.50
2022-10-11T22:01:09.670Z,102081.53
2022-10-11T22:03:37.417Z,102075.28
2022-10-11T22:06:05.368Z,102076.91
2022-10-11T22:08:33.067Z,102080.09
2022-10-11T22:11:01.708Z,102084.00
2022-10-11T22:13:32.372Z,102079.81
2022-10-11T22:16:03.557Z,102070.75
2022-10-11T22:18:33.609Z,102073.25
2022-10-11T22:21:06.140Z,102083.19
2022-10-11T22:23:34.250Z,102076.38
2022-10-11T22:26:05.979Z,102077.81
2022-10-11T22:28:35.213Z,102074.66
2022-10-11T22:31:03.317Z,102076.41
2022-10-11T22:33:31.108Z,102071.16
2022-10-11T22:36:00.406Z,102069.28
2022-10-11T22:38:28.679Z,102073.97
2022-10-11T22:40:58.888Z,102069.81
2022-10-11T22:43:26.681Z,102074.19
2022-10-11T22:45:55.722Z,102070.91
2022-10-11T22:48:23.465Z,102066.63
2022-10-11T22:50:51.291Z,102068.44
2022-10-11T22:53:19.444Z,102072.72
2022-10-11T22:55:47.670Z,102064.88
2022-10-11T22:58:15.433Z,102068.28
2022-10-11T23:00:43.550Z,102069.28
2022-10-11T23:03:14.706Z,102063.03
2022-10-11T23:05:42.529Z,102069.88
2022-10-11T23:08:10.773Z,102071.66
2022-10-11T23:10:39.311Z,102068.44
2022-10-11T23:13:07.070Z,102075.47
2022-10-11T23:15:34.847Z,102077.16
2022-10-11T23:18:03.065Z,102074.34
2022-10-11T23:20:32.240Z,102073.25
2022-10-11T23:22:59.941Z,102076.28
2022-10-11T23:25:27.677Z,102079.38
2022-10-11T23:27:55.352Z,102077.41
2022-10-11T23:30:23.064Z,102075.13
2022-10-11T23:32:50.849Z,102076.19
2022-10-11T23:35:18.553Z,102083.41
2022-10-11T23:37:47.638Z,102080.84
2022-10-11T23:40:15.941Z,102087.63
2022-10-11T23:42:43.646Z,102084.81
2022-10-11T23:45:11.684Z,102086.56
2022-10-11T23:47:40.268Z,102087.59
2022-10-11T23:50:09.333Z,102082.72
2022-10-11T23:52:37.227Z,102089.63
2022-10-11T23:55:06.892Z,102086.28
2022-10-11T23:57:34.774Z,102087.97
